Airfield :
LOGIN :

Register | Disclaimer

   EN    FR    IT 

 










Legend :    VFR   Marginal VFR   IFR   Intensive IFR   Very Intensive IFR
Visi :
Ceiling :
>= 8 km
>= 3000ft
5 to 8 km
1000 to 3000 ft
1500m to 5 km
500 to 1000 ft
800 to 1500m
200 to 500 ft
< 800m
< 200 ft
Symbols :   Thunderstorms  Fog  Heavy snow  Heavy precipitations  Wind > 20 kt
SIGMETs :     Misc.  Thunderstorms  Icing  Turbulence  Mountain Waves  Volcanic Ashes







- Airport Elevation : 1260 ft
- IATA code : LDE
- Download approach charts


LFBT - Tarbes / Ossun

CURRENT METAR :
  • 221900Z AUTO 35007KT 9999 OVC044 23/14 Q1021 NOSIG

EXPIRED METARs :
  • 221830Z AUTO 36007KT 9999 SCT042 BKN054 BKN068 23/14 Q1021 NOSIG
  • 221800Z AUTO 02007KT 9999 BKN045 OVC054 23/15 Q1021 NOSIG
  • 221730Z AUTO 02007KT 9999 BKN041 BKN048 24/16 Q1021 NOSIG
  • 221700Z AUTO 36007KT 340V040 9999 OVC041 24/16 Q1021 NOSIG
  • 221630Z AUTO 01007KT 9999 BKN038 OVC046 24/16 Q1021 NOSIG
  • 221600Z AUTO 01007KT 340V040 9999 BKN035 BKN042 BKN062 24/16 Q1021 NOSIG

TAF TAF LFBT
Valid from the 22 at 18:00 until the 23 at 18:00 UTC


221700Z 2218/2318 32007KT 9999 SCT030 BKN050
BECMG 2308/2310 04006KT CAVOK
No reported NOTAMs for that airfield.



MET'MAP, your aeronautical weather chart ! - Copyright ORBIFLY December 2007 - Disclaimer

ORBIFLY MET'MAP TEAM :

Programming & Development : Alexandra Zaïnal
Concept & Development : Baudouin d'Aumeries
Co-Development & Prog : Marc-Olivier Méhu
Technical & hardware support : Manuel Goepfert

Contact : metmap@orbifly.com




SOURCES & CREDITS :

   NOAA